Headland, Alabama
Current Conditions -  °F | °C
As of 4:53 PM on Thursday 18 Dec 2014 (Local Time) from KDHN Reporting Station
Few Clouds Few Clouds  
Wind Chill: 58°   Ceiling: Unl
Heat Index: 58°   Visibility: 10mi
Dew Point: 35°   Wind: 5mph
Humidity: 42%   Direction: 280°W
Pressure: 30.15"   Gusts: NA
Location:  31.35°N, 85.34°W
Report Text: KDHN 182253Z 28004KT 10SM FEW110 14/02 A3015 RMK AO2 SLP208 T01440017 $
Loading
Personal Weather Stations






























Interactive Weather Map New forecast layout! Learn more

10-Day Weather Forecast

Advertisements
Track Severe Weather on mobile